createdAt,value
2018-05-08T00:00:21.539Z,42.80
2018-05-08T00:02:49.025Z,42.80
2018-05-08T00:05:16.521Z,42.60
2018-05-08T00:07:44.026Z,44.20
2018-05-08T00:10:12.338Z,47.90
2018-05-08T00:12:39.854Z,47.90
2018-05-08T00:15:08.159Z,49.90
2018-05-08T00:17:35.666Z,49.90
2018-05-08T00:20:03.977Z,52.50
2018-05-08T00:22:32.238Z,52.90
2018-05-08T00:25:00.496Z,53.70
2018-05-08T00:27:28.027Z,53.60
2018-05-08T00:29:56.289Z,53.70
2018-05-08T00:32:23.801Z,53.60
2018-05-08T00:34:52.055Z,53.10
2018-05-08T00:37:19.557Z,53.10
2018-05-08T00:39:47.047Z,54.20
2018-05-08T00:42:14.537Z,54.40
2018-05-08T00:44:42.029Z,54.80
2018-05-08T00:47:09.573Z,55.50
2018-05-08T00:49:37.915Z,55.80
2018-05-08T00:52:05.414Z,55.80
2018-05-08T00:54:45.270Z,55.90
2018-05-08T00:57:12.775Z,56.20
2018-05-08T00:59:40.249Z,56.90
2018-05-08T01:02:08.526Z,57.20
2018-05-08T01:04:36.019Z,57.10
2018-05-08T01:07:03.530Z,57.60
2018-05-08T01:09:31.034Z,57.30
2018-05-08T01:11:58.537Z,57.80
2018-05-08T01:14:26.065Z,57.60
2018-05-08T01:16:53.558Z,58.10
2018-05-08T01:19:21.072Z,58.30
2018-05-08T01:21:48.583Z,58.40
2018-05-08T01:24:16.084Z,58.70
2018-05-08T01:26:43.581Z,58.90
2018-05-08T01:29:11.071Z,59.60
2018-05-08T01:31:39.381Z,60.60
2018-05-08T01:34:11.139Z,60.60
2018-05-08T01:36:38.631Z,60.80
2018-05-08T01:39:06.132Z,60.50
2018-05-08T01:41:34.401Z,62.70
2018-05-08T01:44:01.927Z,62.60
2018-05-08T01:46:29.487Z,62.60
2018-05-08T01:48:56.982Z,63.40
2018-05-08T01:51:25.250Z,64.00
2018-05-08T01:53:53.533Z,64.20
2018-05-08T01:56:21.041Z,64.10
2018-05-08T01:58:48.618Z,63.40
2018-05-08T02:01:16.124Z,63.60
2018-05-08T02:03:49.309Z,64.20
2018-05-08T02:06:16.831Z,65.30
2018-05-08T02:08:44.346Z,64.90
2018-05-08T02:11:11.945Z,67.00
2018-05-08T02:13:39.416Z,66.60
2018-05-08T02:16:07.671Z,68.90
2018-05-08T02:18:35.205Z,68.80
2018-05-08T02:21:02.719Z,69.10
2018-05-08T02:23:30.216Z,69.30
2018-05-08T02:25:57.784Z,69.30
2018-05-08T02:28:25.292Z,70.30
2018-05-08T02:30:52.795Z,70.50
2018-05-08T02:33:20.338Z,69.50
2018-05-08T02:35:47.841Z,70.00
2018-05-08T02:38:15.422Z,69.80
2018-05-08T02:40:42.993Z,69.80
2018-05-08T02:43:10.482Z,70.40
2018-05-08T02:45:37.998Z,69.70
2018-05-08T02:48:06.261Z,70.00
2018-05-08T02:50:34.599Z,70.70
2018-05-08T02:53:02.114Z,70.60
2018-05-08T02:55:29.633Z,71.80
2018-05-08T02:57:57.192Z,71.80
2018-05-08T03:00:24.703Z,74.50
2018-05-08T03:02:52.259Z,75.20
2018-05-08T03:05:19.776Z,75.60
2018-05-08T03:07:48.056Z,75.40
2018-05-08T03:10:15.537Z,75.30
2018-05-08T03:12:43.046Z,75.60
2018-05-08T03:15:10.552Z,75.70
2018-05-08T03:17:38.065Z,76.00
2018-05-08T03:20:05.578Z,76.20
2018-05-08T03:22:33.178Z,76.80
2018-05-08T03:25:00.685Z,76.60
2018-05-08T03:27:28.190Z,77.20
2018-05-08T03:29:55.697Z,77.40
2018-05-08T03:32:23.187Z,78.50
2018-05-08T03:34:50.730Z,78.70
2018-05-08T03:37:18.260Z,78.80
2018-05-08T03:39:46.532Z,78.80
2018-05-08T03:42:14.826Z,78.80
2018-05-08T03:44:42.376Z,78.70
2018-05-08T03:47:09.922Z,79.80
2018-05-08T03:49:37.442Z,80.10
2018-05-08T03:52:04.961Z,80.90
2018-05-08T03:54:32.446Z,81.00
2018-05-08T03:57:00.029Z,81.10
2018-05-08T03:59:27.525Z,81.20
2018-05-08T04:02:07.529Z,81.70
2018-05-08T04:04:46.938Z,81.70
2018-05-08T04:07:26.313Z,82.50
2018-05-08T04:09:55.418Z,82.70
2018-05-08T04:12:22.914Z,82.70
2018-05-08T04:15:09.495Z,83.00
2018-05-08T04:17:37.847Z,83.50
2018-05-08T04:20:05.368Z,83.50
2018-05-08T04:22:32.932Z,83.70
2018-05-08T04:25:00.451Z,84.30
2018-05-08T04:27:28.711Z,84.40
2018-05-08T04:29:56.207Z,84.30
2018-05-08T04:32:23.771Z,84.60
2018-05-08T04:34:51.317Z,84.40
2018-05-08T04:37:18.863Z,84.60
2018-05-08T04:39:47.156Z,86.50
2018-05-08T04:42:15.249Z,86.40
2018-05-08T04:44:42.752Z,87.20
2018-05-08T04:47:10.262Z,87.20
2018-05-08T04:49:37.771Z,87.60
2018-05-08T04:52:05.281Z,87.00
2018-05-08T04:54:32.813Z,86.80
2018-05-08T04:57:00.303Z,86.70
2018-05-08T04:59:31.481Z,87.20
2018-05-08T05:01:59.012Z,87.20
2018-05-08T05:04:26.497Z,88.20
2018-05-08T05:06:54.814Z,86.70
2018-05-08T05:09:22.262Z,86.70
2018-05-08T05:11:49.814Z,86.90
2018-05-08T05:14:18.058Z,86.50
2018-05-08T05:16:45.605Z,86.50
2018-05-08T05:19:13.085Z,87.00
2018-05-08T05:21:41.353Z,87.80
2018-05-08T05:24:08.850Z,87.70
2018-05-08T05:26:36.413Z,87.90
2018-05-08T05:29:03.940Z,87.60
2018-05-08T05:31:32.240Z,87.70
2018-05-08T05:34:00.487Z,87.30
2018-05-08T05:36:28.807Z,86.70
2018-05-08T05:38:56.368Z,86.70
2018-05-08T05:41:24.199Z,86.70
2018-05-08T05:43:52.441Z,86.20
2018-05-08T05:46:19.950Z,86.10
2018-05-08T05:48:47.439Z,86.40
2018-05-08T05:51:14.958Z,85.90
2018-05-08T05:53:42.445Z,85.80
2018-05-08T05:56:09.938Z,85.10
2018-05-08T05:58:37.490Z,85.20
2018-05-08T06:01:16.725Z,83.60
2018-05-08T06:03:45.005Z,83.10
2018-05-08T06:06:13.269Z,81.60
2018-05-08T06:08:40.897Z,81.50
2018-05-08T06:11:09.182Z,81.40
2018-05-08T06:13:50.035Z,80.70
2018-05-08T06:16:17.607Z,80.70
2018-05-08T06:18:45.449Z,80.20
2018-05-08T06:21:12.962Z,79.90
2018-05-08T06:23:40.706Z,79.10
2018-05-08T06:26:08.244Z,77.50
2018-05-08T06:28:41.436Z,77.00
2018-05-08T06:31:08.982Z,79.00
2018-05-08T06:33:36.553Z,76.80
2018-05-08T06:36:04.062Z,76.40
2018-05-08T06:38:32.385Z,76.30
2018-05-08T06:40:59.884Z,76.10
2018-05-08T06:43:27.393Z,75.60
2018-05-08T06:45:54.943Z,75.30
2018-05-08T06:48:22.919Z,75.10
2018-05-08T06:50:51.259Z,73.20
2018-05-08T06:53:18.744Z,73.00
2018-05-08T06:55:46.248Z,70.30
2018-05-08T06:58:13.772Z,71.50
2018-05-08T07:00:41.267Z,70.50
2018-05-08T07:03:08.779Z,71.40
2018-05-08T07:05:36.307Z,71.60
2018-05-08T07:08:04.582Z,70.90
2018-05-08T07:10:32.884Z,71.60
2018-05-08T07:13:00.421Z,71.40
2018-05-08T07:15:28.813Z,71.30
2018-05-08T07:17:56.354Z,71.20
2018-05-08T07:20:24.621Z,69.90
2018-05-08T07:22:52.166Z,69.90
2018-05-08T07:25:19.685Z,68.00
2018-05-08T07:27:47.196Z,66.00
2018-05-08T07:30:14.695Z,64.90
2018-05-08T07:32:42.221Z,65.50
2018-05-08T07:35:10.479Z,64.10
2018-05-08T07:37:38.767Z,61.80
2018-05-08T07:40:07.183Z,60.00
2018-05-08T07:42:34.710Z,59.90
2018-05-08T07:45:02.953Z,58.70
2018-05-08T07:47:30.458Z,58.60
2018-05-08T07:49:58.073Z,59.20
2018-05-08T07:52:25.602Z,58.80
2018-05-08T07:54:53.080Z,58.60
2018-05-08T07:57:20.569Z,59.40
2018-05-08T07:59:48.077Z,59.50
2018-05-08T08:02:15.561Z,58.10
2018-05-08T08:04:43.064Z,58.20
2018-05-08T08:07:10.586Z,58.40
2018-05-08T08:09:38.074Z,58.30
2018-05-08T08:12:05.554Z,57.30
2018-05-08T08:14:33.069Z,55.70
2018-05-08T08:17:01.371Z,56.20
2018-05-08T08:19:28.860Z,56.10
2018-05-08T08:21:56.345Z,55.80
2018-05-08T08:24:23.926Z,56.60
2018-05-08T08:26:51.460Z,57.30
2018-05-08T08:29:19.791Z,56.60
2018-05-08T08:31:47.289Z,56.60
2018-05-08T08:34:14.840Z,58.40
2018-05-08T08:36:42.337Z,59.10
2018-05-08T08:39:10.602Z,58.70
2018-05-08T08:41:38.148Z,58.60
2018-05-08T08:44:05.759Z,57.70
2018-05-08T08:46:33.762Z,58.00
2018-05-08T08:49:01.265Z,57.60
2018-05-08T08:51:28.751Z,56.70
2018-05-08T08:53:56.278Z,57.80
2018-05-08T08:56:23.794Z,56.30
2018-05-08T08:58:51.320Z,56.40
2018-05-08T09:01:18.872Z,56.20
2018-05-08T09:03:46.369Z,56.20
2018-05-08T09:06:24.433Z,56.20
2018-05-08T09:08:51.936Z,56.70
2018-05-08T09:11:19.504Z,55.50
2018-05-08T09:13:47.019Z,56.00
2018-05-08T09:16:14.493Z,56.40
2018-05-08T09:18:41.986Z,56.80
2018-05-08T09:21:10.311Z,55.60
2018-05-08T09:23:37.810Z,55.60
2018-05-08T09:26:05.330Z,56.00
2018-05-08T09:28:32.900Z,55.50
2018-05-08T09:31:00.516Z,56.40
2018-05-08T09:33:27.990Z,55.70
2018-05-08T09:35:55.593Z,55.80
2018-05-08T09:38:23.089Z,55.90
2018-05-08T09:40:50.651Z,55.40
2018-05-08T09:43:18.194Z,54.80
2018-05-08T09:45:46.475Z,54.80
2018-05-08T09:48:14.765Z,53.70
2018-05-08T09:50:42.259Z,53.70
2018-05-08T09:53:09.746Z,52.00
2018-05-08T09:55:37.347Z,52.70
2018-05-08T09:58:04.839Z,52.70
2018-05-08T10:00:32.331Z,52.30
2018-05-08T10:03:00.701Z,53.40
2018-05-08T10:05:28.957Z,52.60
2018-05-08T10:07:56.437Z,52.60
2018-05-08T10:10:24.741Z,51.50
2018-05-08T10:12:52.239Z,51.50
2018-05-08T10:15:19.752Z,51.60
2018-05-08T10:17:47.286Z,50.00
2018-05-08T10:20:15.639Z,47.10
2018-05-08T10:22:43.171Z,47.10
2018-05-08T10:25:11.431Z,48.80
2018-05-08T10:27:38.944Z,48.80
2018-05-08T10:30:08.243Z,48.00
2018-05-08T10:32:35.759Z,47.90
2018-05-08T10:35:03.261Z,49.40
2018-05-08T10:37:30.762Z,48.70
2018-05-08T10:39:58.299Z,49.20
2018-05-08T10:42:26.551Z,48.80
2018-05-08T10:44:54.817Z,49.00
2018-05-08T10:47:23.150Z,50.20
2018-05-08T10:49:50.654Z,50.20
2018-05-08T10:52:18.918Z,48.20
2018-05-08T10:54:47.234Z,48.70
2018-05-08T10:57:14.806Z,48.70
2018-05-08T10:59:42.351Z,48.20
2018-05-08T11:02:10.654Z,48.70
2018-05-08T11:04:38.152Z,48.70
2018-05-08T11:07:05.777Z,48.70
2018-05-08T11:09:33.283Z,48.20
2018-05-08T11:12:00.831Z,47.00
2018-05-08T11:14:29.165Z,47.30
2018-05-08T11:16:56.787Z,47.30
2018-05-08T11:19:25.139Z,46.40
2018-05-08T11:21:52.632Z,47.70
2018-05-08T11:24:20.167Z,47.40
2018-05-08T11:26:47.847Z,46.40
2018-05-08T11:29:15.224Z,46.30
2018-05-08T11:31:42.739Z,45.80
2018-05-08T11:34:10.358Z,46.60
2018-05-08T11:36:37.865Z,45.60
2018-05-08T11:39:06.182Z,47.20
2018-05-08T11:41:33.701Z,47.20
2018-05-08T11:44:01.306Z,45.10
2018-05-08T11:46:28.852Z,45.40
2018-05-08T11:48:56.386Z,46.50
2018-05-08T11:51:24.636Z,45.10
2018-05-08T11:53:52.127Z,45.10
2018-05-08T11:56:19.679Z,42.90
2018-05-08T11:58:48.614Z,44.70
2018-05-08T12:01:16.125Z,44.70
2018-05-08T12:03:44.433Z,43.10
2018-05-08T12:06:11.974Z,43.00
2018-05-08T12:08:39.516Z,44.10
2018-05-08T12:11:07.115Z,44.90
2018-05-08T12:13:34.620Z,43.00
2018-05-08T12:16:02.134Z,41.70
2018-05-08T12:18:29.673Z,42.10
2018-05-08T12:20:58.094Z,42.70
2018-05-08T12:23:25.579Z,44.70
2018-05-08T12:25:53.879Z,43.10
2018-05-08T12:28:21.362Z,43.10
2018-05-08T12:30:48.861Z,43.00
2018-05-08T12:33:16.497Z,43.60
2018-05-08T12:35:44.028Z,43.50
2018-05-08T12:38:11.554Z,43.20
2018-05-08T12:40:39.106Z,44.10
2018-05-08T12:43:07.673Z,43.40
2018-05-08T12:45:35.173Z,43.40
2018-05-08T12:48:02.685Z,44.30
2018-05-08T12:50:30.248Z,45.60
2018-05-08T12:52:57.742Z,44.60
2018-05-08T12:55:25.300Z,44.80
2018-05-08T12:57:52.791Z,44.20
2018-05-08T13:00:20.343Z,43.20
2018-05-08T13:02:47.936Z,43.10
2018-05-08T13:05:15.477Z,44.20
2018-05-08T13:07:42.948Z,43.30
2018-05-08T13:10:11.287Z,42.50
2018-05-08T13:12:38.844Z,42.50
2018-05-08T13:15:06.351Z,43.80
2018-05-08T13:17:33.861Z,44.20
2018-05-08T13:20:01.365Z,44.10
2018-05-08T13:22:29.682Z,43.50
2018-05-08T13:24:57.198Z,43.50
2018-05-08T13:27:24.711Z,43.70
2018-05-08T13:29:52.181Z,43.70
2018-05-08T13:32:19.726Z,45.60
2018-05-08T13:34:47.252Z,42.50
2018-05-08T13:37:15.557Z,45.80
2018-05-08T13:39:43.124Z,45.80
2018-05-08T13:42:10.623Z,42.60
2018-05-08T13:44:38.398Z,42.80
2018-05-08T13:47:06.685Z,42.90
2018-05-08T13:49:34.968Z,45.10
2018-05-08T13:52:02.466Z,45.00
2018-05-08T13:54:29.954Z,42.10
2018-05-08T13:56:57.517Z,44.00
2018-05-08T13:59:25.769Z,42.70
2018-05-08T14:01:53.267Z,42.70
2018-05-08T14:04:21.568Z,44.00
2018-05-08T14:06:49.201Z,44.00
2018-05-08T14:09:16.621Z,43.80
2018-05-08T14:11:44.145Z,44.50
2018-05-08T14:14:11.781Z,43.20
2018-05-08T14:16:39.299Z,42.50
2018-05-08T14:19:06.809Z,42.50
2018-05-08T14:21:34.400Z,44.00
2018-05-08T14:24:01.915Z,44.50
2018-05-08T14:26:29.452Z,45.80
2018-05-08T14:28:57.831Z,41.40
2018-05-08T14:31:26.130Z,45.60
2018-05-08T14:33:53.624Z,45.70
2018-05-08T14:36:21.167Z,42.60
2018-05-08T14:38:49.054Z,42.60
2018-05-08T14:41:16.647Z,45.10
2018-05-08T14:43:45.004Z,42.60
2018-05-08T14:46:12.462Z,42.60
2018-05-08T14:48:39.985Z,44.30
2018-05-08T14:51:07.472Z,45.40
2018-05-08T14:53:34.995Z,44.00
2018-05-08T14:56:02.612Z,41.20
2018-05-08T14:58:30.870Z,42.70
2018-05-08T15:00:58.364Z,42.70
2018-05-08T15:03:26.642Z,39.80
2018-05-08T15:05:54.169Z,39.80
2018-05-08T15:08:21.684Z,38.70
2018-05-08T15:10:49.181Z,39.40
2018-05-08T15:13:16.799Z,38.50
2018-05-08T15:15:45.050Z,36.20
2018-05-08T15:18:12.544Z,36.10
2018-05-08T15:20:40.022Z,35.80
2018-05-08T15:23:07.786Z,34.90
2018-05-08T15:25:35.356Z,36.50
2018-05-08T15:28:02.955Z,35.20
2018-05-08T15:30:30.500Z,36.10
2018-05-08T15:32:58.786Z,38.30
2018-05-08T15:35:26.507Z,38.20
2018-05-08T15:37:54.053Z,39.50
2018-05-08T15:40:21.566Z,38.90
2018-05-08T15:42:49.798Z,42.40
2018-05-08T15:45:17.347Z,42.30
2018-05-08T15:47:44.829Z,43.20
2018-05-08T15:50:13.099Z,44.80
2018-05-08T15:52:41.462Z,44.60
2018-05-08T15:55:09.052Z,44.60
2018-05-08T15:57:36.452Z,44.60
2018-05-08T16:00:04.048Z,44.70
2018-05-08T16:02:31.594Z,46.80
2018-05-08T16:04:59.147Z,47.00
2018-05-08T16:07:26.674Z,48.70
2018-05-08T16:09:54.174Z,48.10
2018-05-08T16:12:21.656Z,48.30
2018-05-08T16:14:49.280Z,46.70
2018-05-08T16:17:16.962Z,47.30
2018-05-08T16:19:44.484Z,46.80
2018-05-08T16:22:12.829Z,48.40
2018-05-08T16:24:40.485Z,48.00
2018-05-08T16:27:08.033Z,48.20
2018-05-08T16:29:35.645Z,49.70
2018-05-08T16:32:03.129Z,50.50
2018-05-08T16:34:30.651Z,52.20
2018-05-08T16:36:58.230Z,53.10
2018-05-08T16:39:25.752Z,52.80
2018-05-08T16:41:53.241Z,52.10
2018-05-08T16:44:20.758Z,51.20
2018-05-08T16:46:48.292Z,52.70
2018-05-08T16:49:15.796Z,52.40
2018-05-08T16:51:43.343Z,53.00
2018-05-08T16:54:10.842Z,51.40
2018-05-08T16:56:40.409Z,54.30
2018-05-08T16:59:08.395Z,55.20
2018-05-08T17:01:35.898Z,55.90
2018-05-08T17:04:06.100Z,56.50
2018-05-08T17:06:39.653Z,56.50
2018-05-08T17:09:07.995Z,58.30
2018-05-08T17:11:36.281Z,59.30
2018-05-08T17:14:04.119Z,59.30
2018-05-08T17:16:31.737Z,57.70
2018-05-08T17:18:59.374Z,57.80
2018-05-08T17:21:27.779Z,58.90
2018-05-08T17:23:55.609Z,59.70
2018-05-08T17:26:23.252Z,60.00
2018-05-08T17:28:51.800Z,60.30
2018-05-08T17:31:20.479Z,60.20
2018-05-08T17:33:48.096Z,60.20
2018-05-08T17:36:15.749Z,58.40
2018-05-08T17:38:44.025Z,61.30
2018-05-08T17:41:12.400Z,59.80
2018-05-08T17:43:40.708Z,60.00
2018-05-08T17:46:08.224Z,60.00
2018-05-08T17:48:36.582Z,60.50
2018-05-08T17:51:04.143Z,60.40
2018-05-08T17:53:32.462Z,61.00
2018-05-08T17:55:59.984Z,60.90
2018-05-08T17:58:27.502Z,59.40
2018-05-08T18:00:55.055Z,56.20
2018-05-08T18:03:22.639Z,57.50
2018-05-08T18:05:50.173Z,57.30
2018-05-08T18:08:17.790Z,58.70
2018-05-08T18:10:45.315Z,58.00
2018-05-08T18:13:12.831Z,57.20
2018-05-08T18:15:40.355Z,56.90
2018-05-08T18:18:07.945Z,56.50
2018-05-08T18:20:35.532Z,56.40
2018-05-08T18:23:03.114Z,56.40
2018-05-08T18:25:30.654Z,56.10
2018-05-08T18:27:58.157Z,57.20
2018-05-08T18:30:25.643Z,58.10
2018-05-08T18:32:53.128Z,58.30
2018-05-08T18:35:20.670Z,58.30
2018-05-08T18:37:48.212Z,58.20
2018-05-08T18:40:15.710Z,59.20
2018-05-08T18:42:43.248Z,58.30
2018-05-08T18:45:10.864Z,58.40
2018-05-08T18:47:38.358Z,58.70
2018-05-08T18:50:05.920Z,59.50
2018-05-08T18:52:33.525Z,59.90
2018-05-08T18:55:01.019Z,60.60
2018-05-08T18:57:28.638Z,61.50
2018-05-08T19:00:01.790Z,61.30
2018-05-08T19:02:29.453Z,61.60
2018-05-08T19:04:57.093Z,61.80
2018-05-08T19:07:24.610Z,61.90
2018-05-08T19:09:52.174Z,61.70
2018-05-08T19:12:19.679Z,61.80
2018-05-08T19:14:47.334Z,62.20
2018-05-08T19:17:14.769Z,61.50
2018-05-08T19:19:47.888Z,61.00
2018-05-08T19:22:15.416Z,61.50
2018-05-08T19:24:42.903Z,62.20
2018-05-08T19:27:24.721Z,62.10
2018-05-08T19:29:57.821Z,62.30
2018-05-08T19:32:25.356Z,61.50
2018-05-08T19:34:58.491Z,60.40
2018-05-08T19:37:32.499Z,62.20
2018-05-08T19:40:00.148Z,62.20
2018-05-08T19:42:27.671Z,63.40
2018-05-08T19:44:55.318Z,62.60
2018-05-08T19:47:31.040Z,63.10
2018-05-08T19:52:32.433Z,61.60
2018-05-08T19:54:59.958Z,62.20
2018-05-08T19:57:27.565Z,61.60
2018-05-08T20:02:58.131Z,60.50
2018-05-08T20:05:25.679Z,59.60
2018-05-08T20:07:53.157Z,61.30
2018-05-08T20:10:20.708Z,61.80
2018-05-08T20:12:48.338Z,61.00
2018-05-08T20:15:15.854Z,60.90
2018-05-08T20:17:43.350Z,61.20
2018-05-08T20:20:10.842Z,61.60
2018-05-08T20:22:38.347Z,62.50
2018-05-08T20:25:05.932Z,63.70
2018-05-08T20:27:33.486Z,62.50
2018-05-08T20:30:00.993Z,62.50
2018-05-08T20:32:28.484Z,63.10
2018-05-08T20:34:56.004Z,62.50
2018-05-08T20:37:23.515Z,61.60
2018-05-08T20:39:51.008Z,62.50
2018-05-08T20:42:18.541Z,62.30
2018-05-08T20:44:46.097Z,62.10
2018-05-08T20:47:13.620Z,61.80
2018-05-08T20:49:41.886Z,60.70
2018-05-08T20:52:10.368Z,61.00
2018-05-08T20:54:37.859Z,60.90
2018-05-08T20:57:05.348Z,60.30
2018-05-08T20:59:33.063Z,61.80
2018-05-08T21:02:00.555Z,63.00
2018-05-08T21:04:28.084Z,62.80
2018-05-08T21:06:59.085Z,62.50
2018-05-08T21:09:26.749Z,60.40
2018-05-08T21:11:54.340Z,60.10
2018-05-08T21:14:21.889Z,60.90
2018-05-08T21:16:49.402Z,60.00
2018-05-08T21:19:17.842Z,59.80
2018-05-08T21:21:45.331Z,60.20
2018-05-08T21:24:12.811Z,60.50
2018-05-08T21:26:40.322Z,61.10
2018-05-08T21:29:07.859Z,61.00
2018-05-08T21:31:35.377Z,60.80
2018-05-08T21:34:02.864Z,60.50
2018-05-08T21:36:31.193Z,61.60
2018-05-08T21:38:58.703Z,60.70
2018-05-08T21:41:26.945Z,60.40
2018-05-08T21:43:54.468Z,60.40
2018-05-08T21:46:21.977Z,60.40
2018-05-08T21:48:49.473Z,60.90
2018-05-08T21:51:17.195Z,59.60
2018-05-08T21:53:44.747Z,59.50
2018-05-08T21:56:13.017Z,59.20
2018-05-08T21:58:40.547Z,59.20
2018-05-08T22:01:08.045Z,59.00
2018-05-08T22:03:36.310Z,59.00
2018-05-08T22:06:03.816Z,58.90
2018-05-08T22:08:31.302Z,58.60
2018-05-08T22:10:58.808Z,58.60
2018-05-08T22:13:27.125Z,58.40
2018-05-08T22:15:54.686Z,58.40
2018-05-08T22:18:22.175Z,58.70
2018-05-08T22:32:21.316Z,59.40
2018-05-08T22:37:42.259Z,60.40
2018-05-08T22:40:10.589Z,60.00
2018-05-08T22:42:38.205Z,59.90
2018-05-08T22:51:05.461Z,61.50
2018-05-08T22:53:33.047Z,60.20
2018-05-08T22:56:00.728Z,60.30
2018-05-08T23:13:00.957Z,59.50
2018-05-08T23:15:28.470Z,58.80
2018-05-08T23:17:56.022Z,59.00
2018-05-08T23:20:23.535Z,58.80
2018-05-08T23:22:51.112Z,58.90
2018-05-08T23:25:18.671Z,58.60
2018-05-08T23:27:46.191Z,58.50
2018-05-08T23:30:14.490Z,57.90
2018-05-08T23:32:42.032Z,57.80
2018-05-08T23:35:10.305Z,59.20
2018-05-08T23:37:37.844Z,59.10
2018-05-08T23:40:05.335Z,58.60
2018-05-08T23:42:32.865Z,57.80
2018-05-08T23:45:00.442Z,57.70
2018-05-08T23:47:27.969Z,58.10
2018-05-08T23:52:51.891Z,57.60
2018-05-08T23:55:20.165Z,58.00
2018-05-08T23:57:47.734Z,57.90
